sensor_id;sensor_type;location;lat;lon;timestamp;pressure;altitude;pressure_sealevel;temperature;humidity
43161;BME280;40968;52.342;5.528;2023-05-02T00:00:41;102011.06;;;11.72;72.57
43161;BME280;40968;52.342;5.528;2023-05-02T00:03:10;102019.69;;;11.63;73.11
43161;BME280;40968;52.342;5.528;2023-05-02T00:05:37;101940.03;;;11.03;73.41
43161;BME280;40968;52.342;5.528;2023-05-02T00:08:06;102005.38;;;11.48;74.04
43161;BME280;40968;52.342;5.528;2023-05-02T00:10:32;101893.47;;;10.73;74.20
43161;BME280;40968;52.342;5.528;2023-05-02T00:12:59;102013.69;;;11.43;74.63
43161;BME280;40968;52.342;5.528;2023-05-02T00:15:26;101864.72;;;10.45;74.69
43161;BME280;40968;52.342;5.528;2023-05-02T00:17:52;101996.47;;;11.32;74.93
43161;BME280;40968;52.342;5.528;2023-05-02T00:20:19;101986.19;;;11.24;74.93
43161;BME280;40968;52.342;5.528;2023-05-02T00:22:46;101904.09;;;10.75;75.18
43161;BME280;40968;52.342;5.528;2023-05-02T00:25:14;101965.91;;;11.04;75.88
43161;BME280;40968;52.342;5.528;2023-05-02T00:27:42;102021.53;;;11.32;76.19
43161;BME280;40968;52.342;5.528;2023-05-02T00:30:11;102013.19;;;11.37;76.62
43161;BME280;40968;52.342;5.528;2023-05-02T00:32:37;101983.41;;;11.11;76.35
43161;BME280;40968;52.342;5.528;2023-05-02T00:35:05;101994.19;;;11.09;76.66
43161;BME280;40968;52.342;5.528;2023-05-02T00:37:32;101954.00;;;10.77;76.85
43161;BME280;40968;52.342;5.528;2023-05-02T00:39:59;101969.91;;;10.81;77.00
43161;BME280;40968;52.342;5.528;2023-05-02T00:42:27;102016.03;;;11.03;77.42
43161;BME280;40968;52.342;5.528;2023-05-02T00:44:55;101976.25;;;10.80;77.45
43161;BME280;40968;52.342;5.528;2023-05-02T00:47:22;102038.59;;;11.15;77.38
43161;BME280;40968;52.342;5.528;2023-05-02T00:49:49;102038.16;;;11.07;77.74
43161;BME280;40968;52.342;5.528;2023-05-02T00:52:15;102012.75;;;10.82;77.66
43161;BME280;40968;52.342;5.528;2023-05-02T00:54:42;101875.38;;;9.81;77.04
43161;BME280;40968;52.342;5.528;2023-05-02T00:57:09;102056.34;;;10.86;77.26
43161;BME280;40968;52.342;5.528;2023-05-02T00:59:37;102056.84;;;10.76;77.65
43161;BME280;40968;52.342;5.528;2023-05-02T01:02:11;102049.75;;;10.59;77.32
43161;BME280;40968;52.342;5.528;2023-05-02T01:04:49;102070.53;;;10.72;76.97
43161;BME280;40968;52.342;5.528;2023-05-02T01:07:29;102031.59;;;10.49;76.93
43161;BME280;40968;52.342;5.528;2023-05-02T01:10:18;101984.44;;;10.11;76.58
43161;BME280;40968;52.342;5.528;2023-05-02T01:12:53;102072.94;;;10.60;76.76
43161;BME280;40968;52.342;5.528;2023-05-02T01:15:24;101860.22;;;9.31;75.97
43161;BME280;40968;52.342;5.528;2023-05-02T01:17:51;101956.88;;;9.75;75.75
43161;BME280;40968;52.342;5.528;2023-05-02T01:20:22;101995.97;;;9.95;75.67
43161;BME280;40968;52.342;5.528;2023-05-02T01:22:53;102086.63;;;10.38;75.60
43161;BME280;40968;52.342;5.528;2023-05-02T01:25:32;102031.81;;;10.10;75.04
43161;BME280;40968;52.342;5.528;2023-05-02T01:28:09;102060.38;;;10.27;74.66
43161;BME280;40968;52.342;5.528;2023-05-02T01:30:43;102081.09;;;10.41;74.66
43161;BME280;40968;52.342;5.528;2023-05-02T01:33:13;101953.91;;;9.64;74.07
43161;BME280;40968;52.342;5.528;2023-05-02T01:35:42;102026.06;;;10.01;73.92
43161;BME280;40968;52.342;5.528;2023-05-02T01:38:13;102088.47;;;10.38;73.92
43161;BME280;40968;52.342;5.528;2023-05-02T01:40:41;102058.19;;;10.18;73.81
43161;BME280;40968;52.342;5.528;2023-05-02T01:43:11;102041.81;;;10.07;73.84
43161;BME280;40968;52.342;5.528;2023-05-02T01:45:41;101982.63;;;9.78;73.93
43161;BME280;40968;52.342;5.528;2023-05-02T01:48:09;102095.56;;;10.39;73.44
43161;BME280;40968;52.342;5.528;2023-05-02T01:50:38;102099.19;;;10.38;73.45
43161;BME280;40968;52.342;5.528;2023-05-02T01:53:08;102100.13;;;10.37;73.55
43161;BME280;40968;52.342;5.528;2023-05-02T01:55:42;102037.97;;;9.95;73.06
43161;BME280;40968;52.342;5.528;2023-05-02T01:58:10;102110.19;;;10.32;73.30
43161;BME280;40968;52.342;5.528;2023-05-02T02:00:37;102075.69;;;10.08;72.92
43161;BME280;40968;52.342;5.528;2023-05-02T02:03:08;102023.59;;;9.80;73.04
43161;BME280;40968;52.342;5.528;2023-05-02T02:05:36;101894.78;;;9.00;72.98
43161;BME280;40968;52.342;5.528;2023-05-02T02:08:03;102075.38;;;10.14;72.56
43161;BME280;40968;52.342;5.528;2023-05-02T02:10:35;102067.97;;;10.02;71.62
43161;BME280;40968;52.342;5.528;2023-05-02T02:13:05;102077.94;;;10.00;71.19
43161;BME280;40968;52.342;5.528;2023-05-02T02:15:34;102136.34;;;10.26;70.48
43161;BME280;40968;52.342;5.528;2023-05-02T02:18:04;102126.75;;;10.22;69.45
43161;BME280;40968;52.342;5.528;2023-05-02T02:20:36;102086.19;;;9.95;69.47
43161;BME280;40968;52.342;5.528;2023-05-02T02:23:06;102061.38;;;9.74;69.21
43161;BME280;40968;52.342;5.528;2023-05-02T02:25:34;102133.22;;;10.18;69.80
43161;BME280;40968;52.342;5.528;2023-05-02T02:28:01;101960.53;;;9.22;69.90
43161;BME280;40968;52.342;5.528;2023-05-02T02:30:28;102132.09;;;10.22;69.68
43161;BME280;40968;52.342;5.528;2023-05-02T02:32:54;102137.53;;;10.21;70.21
43161;BME280;40968;52.342;5.528;2023-05-02T02:35:21;102092.56;;;9.92;70.09
43161;BME280;40968;52.342;5.528;2023-05-02T02:37:55;102140.38;;;10.18;70.23
43161;BME280;40968;52.342;5.528;2023-05-02T02:40:28;102143.94;;;10.18;70.57
43161;BME280;40968;52.342;5.528;2023-05-02T02:42:58;102150.41;;;10.14;70.27
43161;BME280;40968;52.342;5.528;2023-05-02T02:45:33;102110.59;;;9.89;70.22
43161;BME280;40968;52.342;5.528;2023-05-02T02:48:09;102075.53;;;9.58;70.42
43161;BME280;40968;52.342;5.528;2023-05-02T02:50:49;102154.16;;;10.10;70.14
43161;BME280;40968;52.342;5.528;2023-05-02T02:53:24;102155.25;;;10.06;69.42
43161;BME280;40968;52.342;5.528;2023-05-02T02:55:55;102120.91;;;9.79;69.51
43161;BME280;40968;52.342;5.528;2023-05-02T02:58:42;102129.59;;;9.84;69.46
43161;BME280;40968;52.342;5.528;2023-05-02T03:01:14;102115.94;;;9.71;68.59
43161;BME280;40968;52.342;5.528;2023-05-02T03:03:44;102161.91;;;9.99;68.03
43161;BME280;40968;52.342;5.528;2023-05-02T03:06:12;102174.47;;;9.96;68.21
43161;BME280;40968;52.342;5.528;2023-05-02T03:08:40;102173.63;;;9.96;68.35
43161;BME280;40968;52.342;5.528;2023-05-02T03:11:07;102050.84;;;9.17;68.65
43161;BME280;40968;52.342;5.528;2023-05-02T03:13:34;102188.25;;;9.89;69.48
43161;BME280;40968;52.342;5.528;2023-05-02T03:16:20;102182.34;;;9.82;69.69
43161;BME280;40968;52.342;5.528;2023-05-02T03:18:51;102195.88;;;9.79;69.46
43161;BME280;40968;52.342;5.528;2023-05-02T03:21:18;102194.97;;;9.80;69.95
43161;BME280;40968;52.342;5.528;2023-05-02T03:23:46;102069.16;;;9.07;69.45
43161;BME280;40968;52.342;5.528;2023-05-02T03:26:12;101992.13;;;8.59;69.15
43161;BME280;40968;52.342;5.528;2023-05-02T03:28:39;102171.91;;;9.58;69.00
43161;BME280;40968;52.342;5.528;2023-05-02T03:31:06;102149.53;;;9.42;68.97
43161;BME280;40968;52.342;5.528;2023-05-02T03:33:32;102214.63;;;9.79;68.95
43161;BME280;40968;52.342;5.528;2023-05-02T03:36:00;102212.88;;;9.78;69.67
43161;BME280;40968;52.342;5.528;2023-05-02T03:38:28;102192.09;;;9.66;69.43
43161;BME280;40968;52.342;5.528;2023-05-02T03:40:57;102223.22;;;9.86;69.31
43161;BME280;40968;52.342;5.528;2023-05-02T03:43:23;102201.78;;;9.68;69.30
43161;BME280;40968;52.342;5.528;2023-05-02T03:45:50;102230.44;;;9.84;68.76
43161;BME280;40968;52.342;5.528;2023-05-02T03:48:16;102201.06;;;9.65;68.94
43161;BME280;40968;52.342;5.528;2023-05-02T03:50:44;102234.16;;;9.81;68.60
43161;BME280;40968;52.342;5.528;2023-05-02T03:53:10;102232.44;;;9.80;68.31
43161;BME280;40968;52.342;5.528;2023-05-02T03:55:38;102168.66;;;9.33;67.79
43161;BME280;40968;52.342;5.528;2023-05-02T03:58:06;102249.81;;;9.71;67.73
43161;BME280;40968;52.342;5.528;2023-05-02T04:00:33;102245.69;;;9.64;67.87
43161;BME280;40968;52.342;5.528;2023-05-02T04:03:00;102256.78;;;9.56;67.87
43161;BME280;40968;52.342;5.528;2023-05-02T04:05:26;102257.63;;;9.57;68.44
43161;BME280;40968;52.342;5.528;2023-05-02T04:07:54;102206.56;;;9.23;68.92
43161;BME280;40968;52.342;5.528;2023-05-02T04:10:20;102269.19;;;9.57;69.19
43161;BME280;40968;52.342;5.528;2023-05-02T04:12:47;102266.66;;;9.54;69.11
43161;BME280;40968;52.342;5.528;2023-05-02T04:15:15;102218.34;;;9.19;68.75
43161;BME280;40968;52.342;5.528;2023-05-02T04:17:42;102279.41;;;9.49;68.72
43161;BME280;40968;52.342;5.528;2023-05-02T04:20:09;102242.41;;;9.19;68.75
43161;BME280;40968;52.342;5.528;2023-05-02T04:22:36;102286.19;;;9.37;68.42
43161;BME280;40968;52.342;5.528;2023-05-02T04:25:04;102284.59;;;9.33;68.59
43161;BME280;40968;52.342;5.528;2023-05-02T04:27:30;102298.09;;;9.30;68.37
43161;BME280;40968;52.342;5.528;2023-05-02T04:29:57;102261.72;;;9.07;68.98
43161;BME280;40968;52.342;5.528;2023-05-02T04:32:25;102300.72;;;9.32;68.72
43161;BME280;40968;52.342;5.528;2023-05-02T04:34:52;102304.13;;;9.35;69.07
43161;BME280;40968;52.342;5.528;2023-05-02T04:37:19;102269.16;;;9.19;69.35
43161;BME280;40968;52.342;5.528;2023-05-02T04:39:45;102287.34;;;9.32;68.86
43161;BME280;40968;52.342;5.528;2023-05-02T04:42:12;102275.25;;;9.23;68.68
43161;BME280;40968;52.342;5.528;2023-05-02T04:44:38;102325.56;;;9.54;68.39
43161;BME280;40968;52.342;5.528;2023-05-02T04:47:05;102077.72;;;7.96;68.20
43161;BME280;40968;52.342;5.528;2023-05-02T04:49:33;102265.25;;;9.07;67.50
43161;BME280;40968;52.342;5.528;2023-05-02T04:52:00;102290.72;;;9.16;67.19
43161;BME280;40968;52.342;5.528;2023-05-02T04:54:27;102335.00;;;9.42;66.91
43161;BME280;40968;52.342;5.528;2023-05-02T04:56:53;102304.75;;;9.21;67.11
43161;BME280;40968;52.342;5.528;2023-05-02T04:59:20;102078.38;;;7.80;66.60
43161;BME280;40968;52.342;5.528;2023-05-02T05:01:47;102307.03;;;9.10;66.31
43161;BME280;40968;52.342;5.528;2023-05-02T05:04:13;102318.16;;;9.01;66.38
43161;BME280;40968;52.342;5.528;2023-05-02T05:06:41;102303.44;;;8.90;67.04
43161;BME280;40968;52.342;5.528;2023-05-02T05:09:08;102376.66;;;9.29;67.47
43161;BME280;40968;52.342;5.528;2023-05-02T05:11:34;102339.41;;;9.04;67.14
43161;BME280;40968;52.342;5.528;2023-05-02T05:14:02;102146.41;;;7.92;67.21
43161;BME280;40968;52.342;5.528;2023-05-02T05:16:29;102382.84;;;9.29;67.49
43161;BME280;40968;52.342;5.528;2023-05-02T05:18:56;102380.19;;;9.29;67.24
43161;BME280;40968;52.342;5.528;2023-05-02T05:21:22;102374.91;;;9.28;66.91
43161;BME280;40968;52.342;5.528;2023-05-02T05:23:50;102364.81;;;9.14;66.98
43161;BME280;40968;52.342;5.528;2023-05-02T05:26:17;102355.19;;;9.10;66.27
43161;BME280;40968;52.342;5.528;2023-05-02T05:28:44;102389.13;;;9.28;66.08
43161;BME280;40968;52.342;5.528;2023-05-02T05:31:12;102375.25;;;9.20;65.69
43161;BME280;40968;52.342;5.528;2023-05-02T05:33:40;102393.41;;;9.33;65.78
43161;BME280;40968;52.342;5.528;2023-05-02T05:36:08;102201.38;;;8.19;65.22
43161;BME280;40968;52.342;5.528;2023-05-02T05:38:35;102329.09;;;8.94;65.58
43161;BME280;40968;52.342;5.528;2023-05-02T05:41:03;102246.63;;;8.44;65.12
43161;BME280;40968;52.342;5.528;2023-05-02T05:43:31;102400.41;;;9.37;65.35
43161;BME280;40968;52.342;5.528;2023-05-02T05:45:58;102409.34;;;9.36;65.26
43161;BME280;40968;52.342;5.528;2023-05-02T05:48:25;102354.41;;;9.08;64.96
43161;BME280;40968;52.342;5.528;2023-05-02T05:50:51;102275.25;;;8.62;64.63
43161;BME280;40968;52.342;5.528;2023-05-02T05:53:18;102413.63;;;9.40;64.60
43161;BME280;40968;52.342;5.528;2023-05-02T05:55:46;102419.78;;;9.42;64.84
43161;BME280;40968;52.342;5.528;2023-05-02T05:58:14;102333.41;;;8.78;64.34
43161;BME280;40968;52.342;5.528;2023-05-02T06:00:40;102373.84;;;9.11;64.35
43161;BME280;40968;52.342;5.528;2023-05-02T06:03:07;102433.19;;;9.42;64.48
43161;BME280;40968;52.342;5.528;2023-05-02T06:05:33;102299.47;;;8.58;63.82
43161;BME280;40968;52.342;5.528;2023-05-02T06:08:00;102437.97;;;9.34;63.97
43161;BME280;40968;52.342;5.528;2023-05-02T06:10:27;102454.69;;;9.39;63.63
43161;BME280;40968;52.342;5.528;2023-05-02T06:12:53;102453.78;;;9.40;63.45
43161;BME280;40968;52.342;5.528;2023-05-02T06:15:21;102355.63;;;8.78;64.03
43161;BME280;40968;52.342;5.528;2023-05-02T06:17:49;102415.63;;;9.14;64.28
43161;BME280;40968;52.342;5.528;2023-05-02T06:20:16;102462.72;;;9.39;63.96
43161;BME280;40968;52.342;5.528;2023-05-02T06:22:43;102193.47;;;7.73;64.30
43161;BME280;40968;52.342;5.528;2023-05-02T06:25:09;102435.28;;;9.13;65.43
43161;BME280;40968;52.342;5.528;2023-05-02T06:27:36;102482.78;;;9.28;65.06
43161;BME280;40968;52.342;5.528;2023-05-02T06:30:04;102495.38;;;9.26;65.65
43161;BME280;40968;52.342;5.528;2023-05-02T06:32:32;102328.06;;;8.34;65.02
43161;BME280;40968;52.342;5.528;2023-05-02T06:34:58;102485.91;;;9.18;64.96
43161;BME280;40968;52.342;5.528;2023-05-02T06:37:25;102505.69;;;9.36;65.05
43161;BME280;40968;52.342;5.528;2023-05-02T06:39:52;102424.00;;;8.84;64.06
43161;BME280;40968;52.342;5.528;2023-05-02T06:42:18;102513.78;;;9.34;64.39
43161;BME280;40968;52.342;5.528;2023-05-02T06:44:45;102520.84;;;9.35;63.27
43161;BME280;40968;52.342;5.528;2023-05-02T06:47:11;102478.47;;;9.04;62.87
43161;BME280;40968;52.342;5.528;2023-05-02T06:49:39;102501.50;;;9.08;62.25
43161;BME280;40968;52.342;5.528;2023-05-02T06:52:06;102497.16;;;9.05;62.16
43161;BME280;40968;52.342;5.528;2023-05-02T06:54:32;102543.25;;;9.33;61.83
43161;BME280;40968;52.342;5.528;2023-05-02T06:56:59;102483.19;;;8.97;61.61
43161;BME280;40968;52.342;5.528;2023-05-02T06:59:27;102401.91;;;8.58;61.43
43161;BME280;40968;52.342;5.528;2023-05-02T07:01:53;102546.34;;;9.44;60.90
43161;BME280;40968;52.342;5.528;2023-05-02T07:04:20;102422.69;;;8.74;61.13
43161;BME280;40968;52.342;5.528;2023-05-02T07:06:48;102450.44;;;8.92;60.47
43161;BME280;40968;52.342;5.528;2023-05-02T07:09:14;102503.47;;;9.25;60.64
43161;BME280;40968;52.342;5.528;2023-05-02T07:11:41;102505.00;;;9.31;59.94
43161;BME280;40968;52.342;5.528;2023-05-02T07:14:08;102523.34;;;9.40;59.98
43161;BME280;40968;52.342;5.528;2023-05-02T07:16:35;102565.22;;;9.61;59.35
43161;BME280;40968;52.342;5.528;2023-05-02T07:19:01;102569.53;;;9.66;59.46
43161;BME280;40968;52.342;5.528;2023-05-02T07:21:28;102561.13;;;9.75;59.49
43161;BME280;40968;52.342;5.528;2023-05-02T07:23:58;102569.75;;;9.82;58.51
43161;BME280;40968;52.342;5.528;2023-05-02T07:26:25;102569.41;;;9.89;58.56
43161;BME280;40968;52.342;5.528;2023-05-02T07:28:51;102486.75;;;9.40;58.08
43161;BME280;40968;52.342;5.528;2023-05-02T07:31:18;102497.13;;;9.48;57.17
43161;BME280;40968;52.342;5.528;2023-05-02T07:33:45;102539.81;;;9.72;57.22
43161;BME280;40968;52.342;5.528;2023-05-02T07:36:11;102589.78;;;9.93;57.22
43161;BME280;40968;52.342;5.528;2023-05-02T07:38:38;102493.75;;;9.43;56.03
43161;BME280;40968;52.342;5.528;2023-05-02T07:41:06;102410.53;;;8.87;55.45
43161;BME280;40968;52.342;5.528;2023-05-02T07:43:33;102530.72;;;9.55;54.70
43161;BME280;40968;52.342;5.528;2023-05-02T07:46:03;102587.34;;;9.87;54.40
43161;BME280;40968;52.342;5.528;2023-05-02T07:48:29;102505.63;;;9.37;54.65
43161;BME280;40968;52.342;5.528;2023-05-02T07:51:04;102596.72;;;9.98;54.60
43161;BME280;40968;52.342;5.528;2023-05-02T07:53:31;102553.69;;;9.82;54.19
43161;BME280;40968;52.342;5.528;2023-05-02T07:55:58;102584.41;;;10.14;53.84
43161;BME280;40968;52.342;5.528;2023-05-02T07:58:26;102508.50;;;9.74;52.34
43161;BME280;40968;52.342;5.528;2023-05-02T08:00:52;102482.31;;;9.60;52.18
43161;BME280;40968;52.342;5.528;2023-05-02T08:03:19;102597.38;;;10.44;52.32
43161;BME280;40968;52.342;5.528;2023-05-02T08:05:45;102524.88;;;10.07;50.70
43161;BME280;40968;52.342;5.528;2023-05-02T08:08:12;102600.00;;;10.45;50.62
43161;BME280;40968;52.342;5.528;2023-05-02T08:10:39;102606.06;;;10.49;49.88
43161;BME280;40968;52.342;5.528;2023-05-02T08:13:05;102505.22;;;9.88;48.81
43161;BME280;40968;52.342;5.528;2023-05-02T08:15:33;102575.72;;;10.28;49.83
43161;BME280;40968;52.342;5.528;2023-05-02T08:18:00;102577.22;;;10.35;50.08
43161;BME280;40968;52.342;5.528;2023-05-02T08:20:26;102485.31;;;9.93;50.60
43161;BME280;40968;52.342;5.528;2023-05-02T08:22:53;102589.00;;;10.71;50.00
43161;BME280;40968;52.342;5.528;2023-05-02T08:25:20;102587.75;;;10.78;50.37
43161;BME280;40968;52.342;5.528;2023-05-02T08:27:46;102542.63;;;10.50;49.16
43161;BME280;40968;52.342;5.528;2023-05-02T08:30:13;102559.22;;;10.58;48.99
43161;BME280;40968;52.342;5.528;2023-05-02T08:32:41;102627.25;;;10.93;48.39
43161;BME280;40968;52.342;5.528;2023-05-02T08:35:08;102601.47;;;10.72;48.46
43161;BME280;40968;52.342;5.528;2023-05-02T08:37:35;102642.59;;;10.91;48.08
43161;BME280;40968;52.342;5.528;2023-05-02T08:40:02;102641.38;;;10.78;46.76
43161;BME280;40968;52.342;5.528;2023-05-02T08:42:32;102548.63;;;10.15;47.81
43161;BME280;40968;52.342;5.528;2023-05-02T08:44:59;102574.22;;;10.22;47.74
43161;BME280;40968;52.342;5.528;2023-05-02T08:47:28;102479.56;;;9.61;47.74
43161;BME280;40968;52.342;5.528;2023-05-02T08:49:58;102651.53;;;10.71;47.41
43161;BME280;40968;52.342;5.528;2023-05-02T08:52:25;102653.09;;;10.77;46.25
43161;BME280;40968;52.342;5.528;2023-05-02T08:54:52;102650.53;;;10.74;47.24
43161;BME280;40968;52.342;5.528;2023-05-02T08:57:20;102572.88;;;10.12;46.39
43161;BME280;40968;52.342;5.528;2023-05-02T08:59:46;102663.03;;;10.54;46.31
43161;BME280;40968;52.342;5.528;2023-05-02T09:02:21;102598.81;;;10.11;46.90
43161;BME280;40968;52.342;5.528;2023-05-02T09:04:53;102631.94;;;10.29;47.36
43161;BME280;40968;52.342;5.528;2023-05-02T09:07:21;102635.19;;;10.38;48.36
43161;BME280;40968;52.342;5.528;2023-05-02T09:09:48;102629.50;;;10.45;47.41
43161;BME280;40968;52.342;5.528;2023-05-02T09:12:15;102396.97;;;9.12;48.16
43161;BME280;40968;52.342;5.528;2023-05-02T09:14:42;102620.13;;;10.54;47.83
43161;BME280;40968;52.342;5.528;2023-05-02T09:17:09;102643.03;;;10.82;47.68
43161;BME280;40968;52.342;5.528;2023-05-02T09:19:36;102687.03;;;11.16;46.00
43161;BME280;40968;52.342;5.528;2023-05-02T09:22:03;102693.09;;;11.20;46.55
43161;BME280;40968;52.342;5.528;2023-05-02T09:24:31;102692.09;;;11.22;46.13
43161;BME280;40968;52.342;5.528;2023-05-02T09:26:59;102576.53;;;10.51;45.86
43161;BME280;40968;52.342;5.528;2023-05-02T09:29:27;102694.13;;;11.17;46.03
43161;BME280;40968;52.342;5.528;2023-05-02T09:31:59;102692.41;;;11.16;45.77
43161;BME280;40968;52.342;5.528;2023-05-02T09:34:26;102605.41;;;10.44;44.78
43161;BME280;40968;52.342;5.528;2023-05-02T09:36:53;102603.63;;;10.44;44.64
43161;BME280;40968;52.342;5.528;2023-05-02T09:39:20;102685.19;;;10.98;44.22
43161;BME280;40968;52.342;5.528;2023-05-02T09:41:49;102545.75;;;10.20;45.10
43161;BME280;40968;52.342;5.528;2023-05-02T09:44:17;102638.44;;;10.84;44.78
43161;BME280;40968;52.342;5.528;2023-05-02T09:46:45;102715.88;;;11.49;44.74
43161;BME280;40968;52.342;5.528;2023-05-02T09:49:12;102720.31;;;11.50;43.40
43161;BME280;40968;52.342;5.528;2023-05-02T09:51:43;102562.16;;;10.52;43.23
43161;BME280;40968;52.342;5.528;2023-05-02T09:54:11;102715.38;;;11.41;44.00
43161;BME280;40968;52.342;5.528;2023-05-02T09:56:54;102683.22;;;11.39;43.18
43161;BME280;40968;52.342;5.528;2023-05-02T09:59:22;102567.38;;;10.74;43.68
43161;BME280;40968;52.342;5.528;2023-05-02T10:01:54;102674.22;;;11.59;42.92
43161;BME280;40968;52.342;5.528;2023-05-02T10:04:21;102672.59;;;11.55;42.89
43161;BME280;40968;52.342;5.528;2023-05-02T10:06:50;102597.22;;;11.04;41.96
43161;BME280;40968;52.342;5.528;2023-05-02T10:09:18;102720.66;;;11.61;41.65
43161;BME280;40968;52.342;5.528;2023-05-02T10:11:45;102598.28;;;11.02;41.82
43161;BME280;40968;52.342;5.528;2023-05-02T10:14:15;102667.41;;;11.52;41.56
43161;BME280;40968;52.342;5.528;2023-05-02T10:16:51;102694.78;;;11.78;42.09
43161;BME280;40968;52.342;5.528;2023-05-02T10:19:23;102748.69;;;11.92;41.75
43161;BME280;40968;52.342;5.528;2023-05-02T10:21:52;102721.75;;;11.94;42.66
43161;BME280;40968;52.342;5.528;2023-05-02T10:24:19;102673.03;;;11.65;42.10
43161;BME280;40968;52.342;5.528;2023-05-02T10:26:46;102728.56;;;12.01;42.69
43161;BME280;40968;52.342;5.528;2023-05-02T10:29:14;102739.56;;;12.14;42.50
43161;BME280;40968;52.342;5.528;2023-05-02T10:31:42;102680.53;;;11.95;41.88
43161;BME280;40968;52.342;5.528;2023-05-02T10:34:11;102677.38;;;12.04;42.53
43161;BME280;40968;52.342;5.528;2023-05-02T10:36:37;102737.69;;;12.34;42.10
43161;BME280;40968;52.342;5.528;2023-05-02T10:39:05;102615.28;;;11.56;41.42
43161;BME280;40968;52.342;5.528;2023-05-02T10:41:33;102714.91;;;12.06;41.69
43161;BME280;40968;52.342;5.528;2023-05-02T10:44:01;102748.44;;;12.16;41.94
43161;BME280;40968;52.342;5.528;2023-05-02T10:46:33;102751.06;;;12.18;42.00
43161;BME280;40968;52.342;5.528;2023-05-02T10:49:01;102765.28;;;12.20;41.59
43161;BME280;40968;52.342;5.528;2023-05-02T10:51:29;102753.75;;;12.18;40.69
43161;BME280;40968;52.342;5.528;2023-05-02T10:54:17;102747.16;;;12.23;41.36
43161;BME280;40968;52.342;5.528;2023-05-02T10:57:04;102727.44;;;12.42;40.12
43161;BME280;40968;52.342;5.528;2023-05-02T10:59:33;102726.00;;;12.35;40.58
43161;BME280;40968;52.342;5.528;2023-05-02T11:02:01;102717.84;;;12.36;39.85
43161;BME280;40968;52.342;5.528;2023-05-02T11:04:57;102760.78;;;12.55;39.51
43161;BME280;40968;52.342;5.528;2023-05-02T11:07:24;102653.41;;;12.00;39.19
43161;BME280;40968;52.342;5.528;2023-05-02T11:09:50;102754.91;;;12.65;39.91
43161;BME280;40968;52.342;5.528;2023-05-02T11:12:42;102764.66;;;12.50;39.52
43161;BME280;40968;52.342;5.528;2023-05-02T11:15:09;102768.69;;;12.41;39.84
43161;BME280;40968;52.342;5.528;2023-05-02T11:17:59;102706.22;;;12.18;40.15
43161;BME280;40968;52.342;5.528;2023-05-02T11:20:26;102765.63;;;13.00;39.34
43161;BME280;40968;52.342;5.528;2023-05-02T11:22:55;102768.50;;;13.46;39.76
43161;BME280;40968;52.342;5.528;2023-05-02T11:25:29;102744.78;;;13.37;39.50
43161;BME280;40968;52.342;5.528;2023-05-02T11:27:55;102763.53;;;13.54;39.10
43161;BME280;40968;52.342;5.528;2023-05-02T11:30:36;102773.03;;;13.46;38.22
43161;BME280;40968;52.342;5.528;2023-05-02T11:33:19;102771.75;;;13.19;38.55
43161;BME280;40968;52.342;5.528;2023-05-02T11:35:47;102723.41;;;12.67;38.25
43161;BME280;40968;52.342;5.528;2023-05-02T11:38:19;102695.56;;;12.68;38.25
43161;BME280;40968;52.342;5.528;2023-05-02T11:40:51;102769.53;;;13.59;38.54
43161;BME280;40968;52.342;5.528;2023-05-02T11:43:18;102770.72;;;14.18;37.39
43161;BME280;40968;52.342;5.528;2023-05-02T11:45:46;102759.59;;;14.08;36.42
43161;BME280;40968;52.342;5.528;2023-05-02T11:48:15;102770.75;;;14.02;36.41
43161;BME280;40968;52.342;5.528;2023-05-02T11:50:44;102744.69;;;13.54;36.63
43161;BME280;40968;52.342;5.528;2023-05-02T11:53:12;102703.97;;;13.11;37.07
43161;BME280;40968;52.342;5.528;2023-05-02T11:55:46;102774.03;;;13.27;37.36
43161;BME280;40968;52.342;5.528;2023-05-02T11:58:14;102787.03;;;13.35;38.25
43161;BME280;40968;52.342;5.528;2023-05-02T12:00:42;102715.22;;;13.19;38.33
43161;BME280;40968;52.342;5.528;2023-05-02T12:03:22;102679.25;;;13.20;38.14
43161;BME280;40968;52.342;5.528;2023-05-02T12:05:50;102777.69;;;14.06;37.85
43161;BME280;40968;52.342;5.528;2023-05-02T12:08:22;102789.69;;;14.16;37.69
43161;BME280;40968;52.342;5.528;2023-05-02T12:10:50;102744.59;;;13.88;37.08
43161;BME280;40968;52.342;5.528;2023-05-02T12:13:19;102703.88;;;13.46;37.16
43161;BME280;40968;52.342;5.528;2023-05-02T12:15:47;102749.47;;;13.49;37.80
43161;BME280;40968;52.342;5.528;2023-05-02T12:18:14;102731.47;;;13.34;37.13
43161;BME280;40968;52.342;5.528;2023-05-02T12:20:41;102751.41;;;13.47;38.22
43161;BME280;40968;52.342;5.528;2023-05-02T12:23:09;102591.59;;;12.67;38.83
43161;BME280;40968;52.342;5.528;2023-05-02T12:25:37;102816.59;;;14.02;38.22
43161;BME280;40968;52.342;5.528;2023-05-02T12:28:04;102758.97;;;13.56;37.92
43161;BME280;40968;52.342;5.528;2023-05-02T12:30:32;102700.56;;;12.91;37.90
43161;BME280;40968;52.342;5.528;2023-05-02T12:33:00;102779.47;;;13.25;38.08
43161;BME280;40968;52.342;5.528;2023-05-02T12:35:27;102823.09;;;13.50;37.78
43161;BME280;40968;52.342;5.528;2023-05-02T12:37:59;102829.50;;;13.47;38.60
43161;BME280;40968;52.342;5.528;2023-05-02T12:40:35;102829.59;;;13.46;38.31
43161;BME280;40968;52.342;5.528;2023-05-02T12:43:03;102820.47;;;13.48;38.92
43161;BME280;40968;52.342;5.528;2023-05-02T12:45:32;102734.69;;;12.91;38.15
43161;BME280;40968;52.342;5.528;2023-05-02T12:47:59;102731.69;;;13.13;38.93
43161;BME280;40968;52.342;5.528;2023-05-02T12:50:35;102707.81;;;13.23;39.37
43161;BME280;40968;52.342;5.528;2023-05-02T12:53:02;102608.97;;;12.77;39.53
43161;BME280;40968;52.342;5.528;2023-05-02T12:55:30;102789.72;;;13.84;39.88
43161;BME280;40968;52.342;5.528;2023-05-02T12:58:02;102841.34;;;14.24;38.91
43161;BME280;40968;52.342;5.528;2023-05-02T13:00:30;102771.47;;;13.73;38.75
43161;BME280;40968;52.342;5.528;2023-05-02T13:02:57;102692.19;;;13.14;38.44